createdAt,value
2019-01-02T00:00:04.317Z,94418.14
2019-01-02T00:02:32.845Z,94422.47
2019-01-02T00:05:01.095Z,94422.92
2019-01-02T00:07:29.655Z,94423.80
2019-01-02T00:09:57.906Z,94427.16
2019-01-02T00:12:26.283Z,94428.39
2019-01-02T00:14:54.060Z,94435.20
2019-01-02T00:17:21.815Z,94428.50
2019-01-02T00:19:50.300Z,94428.14
2019-01-02T00:22:18.806Z,94428.53
2019-01-02T00:24:48.758Z,94435.30
2019-01-02T00:27:16.995Z,94465.14
2019-01-02T00:29:47.121Z,94453.06
2019-01-02T00:32:14.882Z,94459.09
2019-01-02T00:34:44.251Z,94458.80
2019-01-02T00:37:12.691Z,94463.77
2019-01-02T00:39:41.097Z,94458.72
2019-01-02T00:42:09.182Z,94453.20
2019-01-02T00:44:37.839Z,94453.20
2019-01-02T00:47:05.953Z,94461.19
2019-01-02T00:49:33.785Z,94462.92
2019-01-02T00:52:01.855Z,94473.48
2019-01-02T00:54:30.354Z,94466.38
2019-01-02T00:56:58.765Z,94460.02
2019-01-02T00:59:27.217Z,94477.69
2019-01-02T01:01:55.046Z,94460.16
2019-01-02T01:04:25.424Z,94480.39
2019-01-02T01:06:53.837Z,94471.56
2019-01-02T01:12:18.820Z,94492.64
2019-01-02T01:14:46.589Z,94490.95
2019-01-02T01:17:15.228Z,94508.95
2019-01-02T01:19:43.627Z,94507.66
2019-01-02T01:22:14.055Z,94512.61
2019-01-02T01:24:42.695Z,94541.59
2019-01-02T01:27:11.585Z,94513.08
2019-01-02T01:29:40.166Z,94525.69
2019-01-02T01:32:08.287Z,94534.48
2019-01-02T01:34:38.277Z,94547.16
2019-01-02T01:37:06.460Z,94544.58
2019-01-02T01:39:34.846Z,94547.58
2019-01-02T01:42:02.301Z,94543.22
2019-01-02T01:44:30.782Z,94551.91
2019-01-02T01:47:01.140Z,94562.52
2019-01-02T01:49:29.593Z,94561.53
2019-01-02T01:51:57.545Z,94564.47
2019-01-02T01:54:25.745Z,94562.42
2019-01-02T01:56:54.305Z,94563.10
2019-01-02T01:59:22.822Z,94562.22
2019-01-02T02:01:51.115Z,94572.25
2019-01-02T02:04:18.943Z,94576.03
2019-01-02T02:06:49.021Z,94574.24
2019-01-02T02:09:16.863Z,94572.98
2019-01-02T02:11:46.563Z,94576.35
2019-01-02T02:17:29.116Z,94567.71
2019-01-02T02:19:56.488Z,94566.87
2019-01-02T02:22:26.550Z,94564.62
2019-01-02T02:24:54.783Z,94562.88
2019-01-02T02:27:22.860Z,94561.61
2019-01-02T02:29:50.956Z,94562.86
2019-01-02T02:32:19.110Z,94570.38
2019-01-02T02:34:47.555Z,94576.27
2019-01-02T02:37:15.975Z,94580.05
2019-01-02T02:39:44.667Z,94574.20
2019-01-02T02:42:13.274Z,94574.87
2019-01-02T02:44:42.042Z,94565.74
2019-01-02T02:47:10.452Z,94571.88
2019-01-02T02:49:38.613Z,94568.83
2019-01-02T02:52:07.202Z,94565.94
2019-01-02T02:54:35.395Z,94570.67
2019-01-02T02:57:03.866Z,94578.59
2019-01-02T02:59:32.285Z,94590.84
2019-01-02T03:02:00.630Z,94588.20
2019-01-02T03:04:30.579Z,94573.86
2019-01-02T03:06:58.932Z,94577.59
2019-01-02T03:09:29.319Z,94578.47
2019-01-02T03:11:57.135Z,94588.22
2019-01-02T03:14:25.610Z,94583.22
2019-01-02T03:16:54.517Z,94578.86
2019-01-02T03:19:24.398Z,94580.16
2019-01-02T03:21:54.769Z,94577.66
2019-01-02T03:24:22.949Z,94581.44
2019-01-02T03:26:51.137Z,94576.44
2019-01-02T03:29:18.904Z,94585.62
2019-01-02T03:31:48.517Z,94571.99
2019-01-02T03:34:16.588Z,94567.48
2019-01-02T03:36:43.974Z,94574.47
2019-01-02T03:39:12.351Z,94575.84
2019-01-02T03:41:40.825Z,94564.19
2019-01-02T03:44:09.000Z,94565.41
2019-01-02T03:46:36.713Z,94567.62
2019-01-02T03:49:05.160Z,94559.58
2019-01-02T03:51:33.640Z,94564.68
2019-01-02T03:54:02.042Z,94569.66
2019-01-02T03:56:29.830Z,94574.63
2019-01-02T03:58:58.285Z,94566.66
2019-01-02T04:01:26.776Z,94580.16
2019-01-02T04:03:54.455Z,94587.12
2019-01-02T04:06:22.626Z,94591.88
2019-01-02T04:08:51.038Z,94588.03
2019-01-02T04:11:19.192Z,94581.60
2019-01-02T04:13:47.402Z,94583.17
2019-01-02T04:16:15.912Z,94590.64
2019-01-02T04:18:44.126Z,94575.83
2019-01-02T04:21:11.511Z,94602.00
2019-01-02T04:23:39.670Z,94598.99
2019-01-02T04:26:27.141Z,94587.99
2019-01-02T04:28:54.935Z,94594.86
2019-01-02T04:31:22.730Z,94605.75
2019-01-02T04:33:51.168Z,94612.48
2019-01-02T04:36:19.311Z,94601.09
2019-01-02T04:38:47.792Z,94606.20
2019-01-02T04:41:16.158Z,94609.92
2019-01-02T04:43:44.759Z,94616.75
2019-01-02T04:46:12.828Z,94624.02
2019-01-02T04:48:40.941Z,94619.55
2019-01-02T04:51:09.003Z,94625.31
2019-01-02T04:53:36.763Z,94624.34
2019-01-02T04:56:04.599Z,94636.38
2019-01-02T04:58:32.807Z,94637.20
2019-01-02T05:01:00.996Z,94639.23
2019-01-02T05:03:29.387Z,94633.02
2019-01-02T05:05:57.177Z,94632.38
2019-01-02T05:08:25.385Z,94630.98
2019-01-02T05:10:53.772Z,94635.85
2019-01-02T05:13:21.886Z,94631.52
2019-01-02T05:15:50.383Z,94638.10
2019-01-02T05:18:18.790Z,94638.66
2019-01-02T05:20:47.172Z,94651.34
2019-01-02T05:23:15.715Z,94652.47
2019-01-02T05:25:44.109Z,94659.30
2019-01-02T05:28:12.232Z,94659.32
2019-01-02T05:30:39.676Z,94651.76
2019-01-02T05:33:07.858Z,94649.64
2019-01-02T05:35:36.525Z,94649.52
2019-01-02T05:38:04.727Z,94641.61
2019-01-02T05:40:32.780Z,94637.77
2019-01-02T05:43:00.850Z,94642.45
2019-01-02T05:45:28.937Z,94639.88
2019-01-02T05:47:57.107Z,94646.42
2019-01-02T05:50:25.215Z,94650.26
2019-01-02T05:52:53.721Z,94662.69
2019-01-02T05:55:22.278Z,94664.97
2019-01-02T05:57:50.726Z,94663.53
2019-01-02T06:00:18.859Z,94661.42
2019-01-02T06:02:47.266Z,94660.63
2019-01-02T06:05:15.603Z,94658.54
2019-01-02T06:07:44.126Z,94656.80
2019-01-02T06:10:14.347Z,94657.91
2019-01-02T06:12:42.197Z,94651.63
2019-01-02T06:15:12.446Z,94658.61
2019-01-02T06:17:40.199Z,94659.11
2019-01-02T06:20:10.166Z,94656.72
2019-01-02T06:22:38.697Z,94648.76
2019-01-02T06:25:06.884Z,94649.03
2019-01-02T06:27:34.542Z,94658.28
2019-01-02T06:30:03.138Z,94655.63
2019-01-02T06:32:30.933Z,94655.67
2019-01-02T06:34:59.103Z,94648.63
2019-01-02T06:37:27.159Z,94649.45
2019-01-02T06:39:55.347Z,94645.59
2019-01-02T06:42:23.024Z,94640.14
2019-01-02T06:44:51.603Z,94632.22
2019-01-02T06:47:19.285Z,94635.53
2019-01-02T06:49:47.757Z,94648.12
2019-01-02T06:52:15.119Z,94641.81
2019-01-02T06:54:43.800Z,94638.81
2019-01-02T06:57:12.300Z,94638.81
2019-01-02T06:59:40.517Z,94650.14
2019-01-02T07:02:08.963Z,94643.42
2019-01-02T07:04:37.137Z,94649.33
2019-01-02T07:07:05.634Z,94653.59
2019-01-02T07:09:33.700Z,94658.61
2019-01-02T07:12:02.278Z,94665.36
2019-01-02T07:14:30.769Z,94666.90
2019-01-02T07:16:59.217Z,94665.20
2019-01-02T07:19:26.669Z,94676.95
2019-01-02T07:21:54.778Z,94676.55
2019-01-02T07:24:22.978Z,94676.59
2019-01-02T07:26:51.489Z,94672.05
2019-01-02T07:29:19.969Z,94679.98
2019-01-02T07:31:47.788Z,94676.33
2019-01-02T07:34:54.289Z,94686.21
2019-01-02T07:38:00.503Z,94692.08
2019-01-02T07:41:06.895Z,94695.53
2019-01-02T07:44:13.439Z,94698.93
2019-01-02T07:47:20.038Z,94696.91
2019-01-02T07:50:26.546Z,94698.47
2019-01-02T07:53:33.169Z,94706.02
2019-01-02T07:56:39.697Z,94709.30
2019-01-02T07:59:40.672Z,94702.17
2019-01-02T08:02:47.196Z,94715.38
2019-01-02T08:05:53.218Z,94706.59
2019-01-02T08:08:59.788Z,94718.81
2019-01-02T08:12:06.399Z,94714.55
2019-01-02T08:15:03.674Z,94723.52
2019-01-02T08:17:54.644Z,94725.28
2019-01-02T08:20:52.072Z,94715.73
2019-01-02T08:23:58.710Z,94719.05
2019-01-02T08:27:05.410Z,94718.59
2019-01-02T08:30:11.977Z,94721.78
2019-01-02T08:33:18.519Z,94721.97
2019-01-02T08:36:25.130Z,94733.26
2019-01-02T08:39:31.841Z,94742.48
2019-01-02T08:42:32.774Z,94738.30
2019-01-02T08:45:27.089Z,94740.88
2019-01-02T08:48:33.322Z,94752.30
2019-01-02T08:51:39.600Z,94743.88
2019-01-02T08:54:46.217Z,94748.86
2019-01-02T08:57:48.738Z,94746.78
2019-01-02T09:00:54.999Z,94733.61
2019-01-02T09:04:01.514Z,94733.67
2019-01-02T09:07:07.503Z,94739.61
2019-01-02T09:10:03.443Z,94744.67
2019-01-02T09:13:04.538Z,94743.41
2019-01-02T09:16:11.120Z,94743.39
2019-01-02T09:19:17.384Z,94760.53
2019-01-02T09:22:23.995Z,94765.18
2019-01-02T09:25:30.233Z,94758.73
2019-01-02T09:28:36.787Z,94755.59
2019-01-02T09:31:34.754Z,94761.91
2019-01-02T09:34:26.898Z,94757.34
2019-01-02T09:37:33.448Z,94748.92
2019-01-02T09:40:26.483Z,94752.09
2019-01-02T09:43:33.132Z,94760.91
2019-01-02T09:46:39.689Z,94760.57
2019-01-02T09:49:18.714Z,94758.94
2019-01-02T09:52:24.924Z,94750.68
2019-01-02T09:55:31.188Z,94757.48
2019-01-02T09:58:37.443Z,94747.66
2019-01-02T10:01:43.989Z,94752.06
2019-01-02T10:04:50.247Z,94745.34
2019-01-02T10:07:56.882Z,94740.99
2019-01-02T10:11:03.434Z,94736.03
2019-01-02T10:14:09.671Z,94747.46
2019-01-02T10:17:01.038Z,94745.47
2019-01-02T10:20:07.321Z,94727.22
2019-01-02T10:23:00.494Z,94732.73
2019-01-02T10:26:07.072Z,94731.06
2019-01-02T10:29:13.393Z,94722.88
2019-01-02T10:32:10.073Z,94726.93
2019-01-02T10:35:04.428Z,94726.31
2019-01-02T10:38:10.940Z,94717.53
2019-01-02T10:40:52.379Z,94713.69
2019-01-02T10:43:58.949Z,94712.84
2019-01-02T10:47:04.928Z,94720.42
2019-01-02T10:50:11.475Z,94719.29
2019-01-02T10:53:18.012Z,94704.71
2019-01-02T10:56:24.560Z,94705.20
2019-01-02T10:59:19.344Z,94711.14
2019-01-02T11:02:25.871Z,94716.89
2019-01-02T11:05:32.163Z,94717.67
2019-01-02T11:08:38.494Z,94712.48
2019-01-02T11:11:44.486Z,94706.14
2019-01-02T11:14:45.045Z,94706.33
2019-01-02T11:17:37.948Z,94697.00
2019-01-02T11:20:36.014Z,94689.50
2019-01-02T11:23:42.621Z,94694.69
2019-01-02T11:26:49.178Z,94687.59
2019-01-02T11:29:55.716Z,94696.34
2019-01-02T11:33:01.709Z,94686.70
2019-01-02T11:35:59.921Z,94681.77
2019-01-02T11:39:00.532Z,94674.56
2019-01-02T11:41:53.990Z,94676.83
2019-01-02T11:45:00.270Z,94672.59
2019-01-02T11:47:28.208Z,94650.24
2019-01-02T11:49:56.359Z,94668.14
2019-01-02T11:52:25.542Z,94670.23
2019-01-02T11:54:53.680Z,94651.03
2019-01-02T11:57:22.260Z,94653.01
2019-01-02T11:59:50.554Z,94651.06
2019-01-02T12:02:19.145Z,94655.38
2019-01-02T12:04:47.314Z,94658.91
2019-01-02T12:07:15.531Z,94659.29
2019-01-02T12:09:43.380Z,94668.61
2019-01-02T12:12:12.002Z,94674.27
2019-01-02T12:14:40.134Z,94672.14
2019-01-02T12:17:08.843Z,94669.75
2019-01-02T12:19:37.019Z,94664.11
2019-01-02T12:22:05.544Z,94654.97
2019-01-02T12:24:33.677Z,94651.05
2019-01-02T12:27:02.208Z,94653.70
2019-01-02T12:29:30.279Z,94643.82
2019-01-02T12:31:58.416Z,94647.15
2019-01-02T12:34:26.098Z,94641.41
2019-01-02T12:36:55.066Z,94640.51
2019-01-02T12:39:23.438Z,94640.77
2019-01-02T12:41:51.834Z,94656.82
2019-01-02T12:44:20.353Z,94645.05
2019-01-02T12:46:49.154Z,94642.77
2019-01-02T12:49:18.392Z,94641.94
2019-01-02T12:51:47.094Z,94640.77
2019-01-02T12:54:15.156Z,94630.78
2019-01-02T12:56:43.394Z,94635.28
2019-01-02T12:59:52.672Z,94653.35
2019-01-02T13:02:59.360Z,94644.17
2019-01-02T13:05:50.420Z,94648.66
2019-01-02T13:08:56.994Z,94653.61
2019-01-02T13:11:48.116Z,94656.73
2019-01-02T13:14:54.387Z,94644.89
2019-01-02T13:17:50.409Z,94652.34
2019-01-02T13:20:56.973Z,94642.61
2019-01-02T13:24:03.291Z,94651.77
2019-01-02T13:27:09.893Z,94654.61
2019-01-02T13:30:16.084Z,94656.09
2019-01-02T13:33:22.713Z,94645.24
2019-01-02T13:36:28.975Z,94652.34
2019-01-02T13:39:21.426Z,94643.89
2019-01-02T13:42:12.289Z,94645.52
2019-01-02T13:45:18.900Z,94642.73
2019-01-02T13:48:25.464Z,94647.61
2019-01-02T13:51:31.745Z,94666.39
2019-01-02T13:54:00.134Z,94665.30
2019-01-02T13:56:29.065Z,94665.84
2019-01-02T13:58:57.250Z,94669.05
2019-01-02T14:01:25.893Z,94669.58
2019-01-02T14:03:56.808Z,94670.01
2019-01-02T14:06:25.031Z,94675.53
2019-01-02T14:08:53.133Z,94679.18
2019-01-02T14:11:21.314Z,94677.81
2019-01-02T14:13:49.750Z,94685.36
2019-01-02T14:16:18.260Z,94683.27
2019-01-02T14:18:47.509Z,94692.09
2019-01-02T14:21:14.949Z,94695.53
2019-01-02T14:23:42.387Z,94687.78
2019-01-02T14:26:10.515Z,94690.30
2019-01-02T14:28:38.676Z,94699.61
2019-01-02T14:31:07.801Z,94698.76
2019-01-02T14:33:36.374Z,94707.51
2019-01-02T14:36:04.504Z,94708.23
2019-01-02T14:38:32.754Z,94703.59
2019-01-02T14:41:00.840Z,94701.86
2019-01-02T14:43:28.626Z,94703.89
2019-01-02T14:45:56.982Z,94700.89
2019-01-02T14:48:25.100Z,94697.16
2019-01-02T14:50:53.673Z,94699.99
2019-01-02T14:53:21.388Z,94711.87
2019-01-02T14:55:49.997Z,94704.67
2019-01-02T14:58:18.544Z,94724.42
2019-01-02T15:00:47.146Z,94715.58
2019-01-02T15:03:15.701Z,94719.71
2019-01-02T15:05:44.251Z,94713.00
2019-01-02T15:08:12.726Z,94721.13
2019-01-02T15:10:41.311Z,94722.67
2019-01-02T15:13:09.450Z,94727.06
2019-01-02T15:15:38.013Z,94731.69
2019-01-02T15:18:06.369Z,94729.89
2019-01-02T15:20:34.530Z,94736.75
2019-01-02T15:23:02.823Z,94739.12
2019-01-02T15:25:31.010Z,94736.75
2019-01-02T15:27:58.499Z,94735.19
2019-01-02T15:30:45.671Z,94746.95
2019-01-02T15:33:13.870Z,94744.09
2019-01-02T15:35:41.629Z,94758.66
2019-01-02T15:38:09.514Z,94754.33
2019-01-02T15:40:38.029Z,94753.84
2019-01-02T15:43:06.184Z,94759.59
2019-01-02T15:45:34.357Z,94761.88
2019-01-02T15:48:02.481Z,94766.09
2019-01-02T15:50:30.315Z,94764.55
2019-01-02T15:52:58.486Z,94769.23
2019-01-02T15:55:26.698Z,94772.01
2019-01-02T15:57:55.358Z,94769.27
2019-01-02T16:00:23.129Z,94770.42
2019-01-02T16:02:50.904Z,94781.17
2019-01-02T16:05:18.396Z,94771.25
2019-01-02T16:07:46.957Z,94787.29
2019-01-02T16:10:15.117Z,94786.88
2019-01-02T16:12:46.631Z,94784.84
2019-01-02T16:15:13.027Z,94790.44
2019-01-02T16:17:41.214Z,94790.98
2019-01-02T16:20:09.933Z,94795.22
2019-01-02T16:22:38.780Z,94807.17
2019-01-02T16:25:07.381Z,94807.27
2019-01-02T16:27:36.075Z,94802.73
2019-01-02T16:30:43.953Z,94806.77
2019-01-02T16:33:11.884Z,94811.13
2019-01-02T16:35:40.110Z,94814.06
2019-01-02T16:38:08.556Z,94820.08
2019-01-02T16:40:36.756Z,94825.02
2019-01-02T16:43:04.901Z,94816.94
2019-01-02T16:45:32.479Z,94821.62
2019-01-02T16:48:00.567Z,94837.91
2019-01-02T16:50:28.286Z,94842.39
2019-01-02T16:52:56.485Z,94846.12
2019-01-02T16:55:24.522Z,94854.03
2019-01-02T16:57:53.044Z,94851.13
2019-01-02T17:00:20.546Z,94844.19
2019-01-02T17:02:48.536Z,94858.41
2019-01-02T17:05:16.345Z,94867.67
2019-01-02T17:07:44.186Z,94868.58
2019-01-02T17:10:12.393Z,94867.73
2019-01-02T17:12:41.116Z,94867.48
2019-01-02T17:15:09.241Z,94878.79
2019-01-02T17:17:37.366Z,94880.75
2019-01-02T17:20:06.348Z,94879.74
2019-01-02T17:22:34.243Z,94885.92
2019-01-02T17:25:02.782Z,94884.47
2019-01-02T17:27:31.099Z,94882.06
2019-01-02T17:29:58.856Z,94888.86
2019-01-02T17:32:26.827Z,94886.89
2019-01-02T17:34:54.675Z,94894.83
2019-01-02T17:37:22.885Z,94891.00
2019-01-02T17:39:51.394Z,94887.46
2019-01-02T17:42:19.225Z,94892.91
2019-01-02T17:44:47.470Z,94895.42
2019-01-02T17:47:15.389Z,94895.75
2019-01-02T17:49:43.544Z,94890.63
2019-01-02T17:52:11.761Z,94889.27
2019-01-02T17:54:40.514Z,94888.64
2019-01-02T17:57:09.048Z,94902.31
2019-01-02T17:59:36.972Z,94891.23
2019-01-02T18:02:05.104Z,94900.22
2019-01-02T18:04:33.356Z,94898.27
2019-01-02T18:07:01.687Z,94894.93
2019-01-02T18:09:30.411Z,94902.81
2019-01-02T18:11:58.208Z,94911.42
2019-01-02T18:14:26.057Z,94906.62
2019-01-02T18:16:54.146Z,94911.42
2019-01-02T18:19:22.439Z,94907.56
2019-01-02T18:21:50.605Z,94911.95
2019-01-02T18:24:19.195Z,94918.13
2019-01-02T18:26:47.728Z,94916.61
2019-01-02T18:29:16.078Z,94926.88
2019-01-02T18:34:17.857Z,94918.02
2019-01-02T18:36:46.360Z,94934.45
2019-01-02T18:39:15.375Z,94930.59
2019-01-02T18:41:43.572Z,94919.41
2019-01-02T18:44:11.830Z,94923.64
2019-01-02T18:46:40.038Z,94917.34
2019-01-02T18:49:08.156Z,94926.99
2019-01-02T18:51:36.814Z,94924.95
2019-01-02T18:54:05.391Z,94929.28
2019-01-02T18:56:33.758Z,94938.31
2019-01-02T18:59:02.006Z,94940.39
2019-01-02T19:01:29.529Z,94949.03
2019-01-02T19:03:58.105Z,94950.71
2019-01-02T19:06:26.316Z,94944.47
2019-01-02T19:08:54.072Z,94953.83
2019-01-02T19:11:21.901Z,94952.20
2019-01-02T19:13:50.218Z,94951.48
2019-01-02T19:16:21.542Z,94962.29
2019-01-02T19:18:48.187Z,94954.59
2019-01-02T19:21:16.191Z,94966.16
2019-01-02T19:23:44.008Z,94964.55
2019-01-02T19:26:12.259Z,94961.25
2019-01-02T19:28:40.451Z,94961.13
2019-01-02T19:31:09.062Z,94968.58
2019-01-02T19:33:37.539Z,94966.47
2019-01-02T19:36:05.407Z,94972.59
2019-01-02T19:38:33.680Z,94976.33
2019-01-02T19:41:02.334Z,94973.08
2019-01-02T19:43:30.498Z,94973.80
2019-01-02T19:45:59.102Z,94975.71
2019-01-02T19:48:27.275Z,94975.42
2019-01-02T19:50:56.182Z,94979.40
2019-01-02T19:53:24.358Z,94981.23
2019-01-02T19:55:52.251Z,94990.38
2019-01-02T19:58:20.841Z,94991.73
2019-01-02T20:00:48.376Z,94992.88
2019-01-02T20:03:16.841Z,94998.97
2019-01-02T20:05:45.249Z,94990.34
2019-01-02T20:08:13.497Z,95000.73
2019-01-02T20:10:41.999Z,95007.63
2019-01-02T20:13:10.251Z,95001.83
2019-01-02T20:15:38.372Z,95007.97
2019-01-02T20:18:06.516Z,95016.80
2019-01-02T20:20:34.784Z,95016.47
2019-01-02T20:23:03.311Z,95017.18
2019-01-02T20:25:31.503Z,95003.69
2019-01-02T20:28:00.023Z,95008.82
2019-01-02T20:30:28.436Z,95015.47
2019-01-02T20:32:56.221Z,95010.17
2019-01-02T20:35:23.748Z,95014.86
2019-01-02T20:37:51.957Z,95010.48
2019-01-02T20:40:20.478Z,95007.55
2019-01-02T20:42:48.350Z,95013.93
2019-01-02T20:45:16.154Z,95013.19
2019-01-02T20:47:47.986Z,95013.72
2019-01-02T20:50:14.158Z,95010.83
2019-01-02T20:52:42.853Z,95012.31
2019-01-02T20:55:11.516Z,95020.70
2019-01-02T20:57:40.203Z,95022.66
2019-01-02T21:00:10.286Z,95032.20
2019-01-02T21:02:38.836Z,95022.91
2019-01-02T21:05:07.264Z,95025.64
2019-01-02T21:07:36.032Z,95029.22
2019-01-02T21:10:05.001Z,95023.25
2019-01-02T21:12:33.627Z,95022.23
2019-01-02T21:15:02.182Z,95025.92
2019-01-02T21:17:30.189Z,95028.44
2019-01-02T21:19:59.654Z,95030.87
2019-01-02T21:22:28.452Z,95026.68
2019-01-02T21:24:56.713Z,95030.05
2019-01-02T21:27:25.156Z,95032.75
2019-01-02T21:29:52.680Z,95036.22
2019-01-02T21:32:20.911Z,95035.48
2019-01-02T21:34:49.442Z,95038.13
2019-01-02T21:37:17.713Z,95039.39
2019-01-02T21:39:46.044Z,95033.44
2019-01-02T21:42:14.614Z,95038.84
2019-01-02T21:44:42.487Z,95038.53
2019-01-02T21:47:10.537Z,95038.98
2019-01-02T21:49:38.711Z,95043.50
2019-01-02T21:52:06.733Z,95038.95
2019-01-02T21:54:34.905Z,95045.61
2019-01-02T21:57:03.124Z,95041.09
2019-01-02T21:59:31.747Z,95046.39
2019-01-02T22:01:59.979Z,95044.42
2019-01-02T22:04:28.455Z,95048.94
2019-01-02T22:06:57.118Z,95042.42
2019-01-02T22:09:26.403Z,95054.71
2019-01-02T22:11:54.499Z,95048.05
2019-01-02T22:14:23.242Z,95043.50
2019-01-02T22:16:51.366Z,95045.77
2019-01-02T22:19:19.995Z,95045.03
2019-01-02T22:21:48.592Z,95047.30
2019-01-02T22:24:17.263Z,95054.53
2019-01-02T22:26:45.007Z,95035.50
2019-01-02T22:29:13.392Z,95045.83
2019-01-02T22:31:41.907Z,95054.45
2019-01-02T22:34:10.004Z,95056.59
2019-01-02T22:36:38.561Z,95053.17
2019-01-02T22:39:06.690Z,95048.62
2019-01-02T22:41:34.474Z,95055.94
2019-01-02T22:44:02.693Z,95050.22
2019-01-02T22:46:31.247Z,95053.50
2019-01-02T22:48:59.017Z,95061.66
2019-01-02T22:51:27.257Z,95059.30
2019-01-02T22:53:55.708Z,95064.38
2019-01-02T22:56:23.965Z,95070.27
2019-01-02T22:58:52.467Z,95068.38
2019-01-02T23:01:39.354Z,95069.95
2019-01-02T23:04:26.746Z,95078.98
2019-01-02T23:07:14.002Z,95078.30
2019-01-02T23:10:00.964Z,95084.17
2019-01-02T23:12:48.311Z,95084.07
2019-01-02T23:15:35.191Z,95077.31
2019-01-02T23:18:23.406Z,95081.04
2019-01-02T23:21:10.977Z,95078.98
2019-01-02T23:23:58.555Z,95091.13
2019-01-02T23:26:46.249Z,95095.08
2019-01-02T23:29:33.706Z,95089.83
2019-01-02T23:32:21.132Z,95086.86
2019-01-02T23:35:08.405Z,95092.32
2019-01-02T23:37:55.985Z,95093.13
2019-01-02T23:40:43.266Z,95097.94
2019-01-02T23:43:30.491Z,95097.81
2019-01-02T23:46:18.111Z,95098.27
2019-01-02T23:49:05.734Z,95100.37
2019-01-02T23:51:53.348Z,95091.59
2019-01-02T23:54:40.689Z,95092.20
2019-01-02T23:57:28.011Z,95092.51
